Time;durP1;ratioP1;P1;durP2;ratioP2;P2;SDS_P1;SDS_P2;PMS_P1;PMS_P2;Temp;Humidity;BMP_temperature;BMP_pressure;BME280_temperature;BME280_humidity;BME280_pressure;Samples;Min_cycle;Max_cycle;Signal;HPM_P1;HPM_P2
2021/07/20 00:00:24;;;;;;;12.43;6.73;;;17.10;98.30;;;;;;4155030;28;20465;-84
2021/07/20 00:02:31;;;;;;;8.17;5.40;;;17.10;98.30;;;;;;4151177;28;20462;-84
2021/07/20 00:04:34;;;;;;;6.70;5.67;;;17.00;98.30;;;;;;4150720;28;20473;-84
2021/07/20 00:06:38;;;;;;;6.47;5.70;;;16.90;98.30;;;;;;4153734;28;20466;-83
2021/07/20 00:08:41;;;;;;;8.27;5.60;;;17.00;98.30;;;;;;4146577;28;21007;-84
2021/07/20 00:10:47;;;;;;;7.43;5.53;;;17.10;98.30;;;;;;4149038;28;20493;-84
2021/07/20 00:12:52;;;;;;;7.90;6.00;;;17.20;98.30;;;;;;4163966;28;20490;-85
2021/07/20 00:14:55;;;;;;;16.70;5.97;;;17.20;98.30;;;;;;4159891;28;20560;-85
2021/07/20 00:16:58;;;;;;;11.90;5.67;;;17.20;98.30;;;;;;4162332;28;20468;-84
2021/07/20 00:19:01;;;;;;;8.07;5.57;;;17.20;98.30;;;;;;4158766;28;20969;-85
2021/07/20 00:21:06;;;;;;;9.00;5.23;;;17.20;98.30;;;;;;4158821;28;20471;-84
2021/07/20 00:23:09;;;;;;;7.53;5.67;;;17.10;98.30;;;;;;4155641;28;20464;-84
2021/07/20 00:25:13;;;;;;;6.10;5.23;;;17.10;98.30;;;;;;4158852;28;20480;-85
2021/07/20 00:27:16;;;;;;;6.67;5.03;;;17.10;98.30;;;;;;4157264;28;20507;-85
2021/07/20 00:29:20;;;;;;;5.77;5.20;;;17.10;98.30;;;;;;4151994;28;20466;-85
2021/07/20 00:31:23;;;;;;;7.97;5.63;;;17.10;98.30;;;;;;4155841;28;20486;-85
2021/07/20 00:33:26;;;;;;;7.93;5.13;;;17.20;98.30;;;;;;4157738;28;20487;-85
2021/07/20 00:35:29;;;;;;;6.60;5.70;;;17.20;98.30;;;;;;4154996;28;20488;-85
2021/07/20 00:37:33;;;;;;;6.50;5.83;;;17.10;98.30;;;;;;4155894;28;20494;-85
2021/07/20 00:39:36;;;;;;;7.20;5.80;;;17.10;98.30;;;;;;4150892;28;20545;-85
2021/07/20 00:41:39;;;;;;;7.13;5.40;;;17.10;98.30;;;;;;4149501;28;20465;-85
2021/07/20 00:43:42;;;;;;;6.63;5.03;;;17.20;98.30;;;;;;4153741;28;20565;-85
2021/07/20 00:45:46;;;;;;;6.07;5.30;;;17.20;98.30;;;;;;4153560;28;20507;-85
2021/07/20 00:47:50;;;;;;;7.70;5.73;;;17.20;98.30;;;;;;4150776;28;20487;-85
2021/07/20 00:49:53;;;;;;;6.80;5.73;;;17.20;98.30;;;;;;4152669;28;20469;-84
2021/07/20 00:51:56;;;;;;;6.30;5.70;;;17.20;98.30;;;;;;4154760;28;20580;-85
2021/07/20 00:53:59;;;;;;;6.57;5.60;;;17.20;98.30;;;;;;4149113;28;20469;-85
2021/07/20 00:56:03;;;;;;;9.20;5.60;;;17.20;98.30;;;;;;4153357;28;21758;-84
2021/07/20 00:58:06;;;;;;;8.27;6.80;;;17.20;98.30;;;;;;4153822;28;20493;-84
2021/07/20 01:00:13;;;;;;;8.30;6.10;;;17.10;98.30;;;;;;4155026;28;20546;-84
2021/07/20 01:02:17;;;;;;;6.23;5.40;;;17.00;98.30;;;;;;4146946;28;20988;-85
2021/07/20 01:04:20;;;;;;;9.40;5.87;;;17.00;98.30;;;;;;4153150;28;20475;-86
2021/07/20 01:06:24;;;;;;;6.60;5.27;;;17.00;98.30;;;;;;4152745;28;20466;-85
2021/07/20 01:08:28;;;;;;;9.40;5.60;;;17.00;98.30;;;;;;4150899;28;20492;-85
2021/07/20 01:10:32;;;;;;;7.80;5.27;;;17.00;98.30;;;;;;4152772;28;20500;-84
2021/07/20 01:12:38;;;;;;;6.33;4.80;;;17.00;98.30;;;;;;4152827;28;20469;-85
2021/07/20 01:14:42;;;;;;;11.27;5.63;;;17.00;98.30;;;;;;4147502;28;20461;-85
2021/07/20 01:16:46;;;;;;;6.60;5.60;;;17.10;98.30;;;;;;4150439;28;21063;-85
2021/07/20 01:18:52;;;;;;;7.67;5.67;;;17.10;98.30;;;;;;4149617;28;20510;-85
2021/07/20 01:20:56;;;;;;;7.63;6.00;;;17.00;98.30;;;;;;4147616;28;20828;-86
2021/07/20 01:23:07;;;;;;;8.93;5.30;;;17.00;98.30;;;;;;4156377;28;20488;-85
2021/07/20 01:25:13;;;;;;;7.10;5.57;;;17.00;98.30;;;;;;4155219;28;20521;-85
2021/07/20 01:27:16;;;;;;;8.73;5.10;;;17.10;98.30;;;;;;4145580;28;20517;-84
2021/07/20 01:29:21;;;;;;;5.23;4.73;;;17.10;98.30;;;;;;4161727;28;20486;-84
2021/07/20 01:31:26;;;;;;;5.73;5.17;;;17.00;98.30;;;;;;4145164;28;20484;-84
2021/07/20 01:33:32;;;;;;;10.90;5.43;;;16.90;98.30;;;;;;4155356;28;20516;-86
2021/07/20 01:35:36;;;;;;;6.30;5.70;;;16.90;98.30;;;;;;4155382;28;20549;-86
2021/07/20 01:37:41;;;;;;;6.57;5.73;;;16.90;98.30;;;;;;4157381;28;20494;-85
2021/07/20 01:39:44;;;;;;;7.97;5.70;;;16.90;98.30;;;;;;4155987;28;20533;-85
2021/07/20 01:41:49;;;;;;;8.97;5.70;;;16.90;98.30;;;;;;4152687;28;20470;-86
2021/07/20 01:43:59;;;;;;;6.77;5.30;;;16.90;98.30;;;;;;4155732;28;20502;-86
2021/07/20 01:46:03;;;;;;;6.73;5.73;;;16.90;98.30;;;;;;4154793;28;20561;-85
2021/07/20 01:48:08;;;;;;;9.40;5.90;;;17.00;98.30;;;;;;4153605;28;20565;-85
2021/07/20 01:50:13;;;;;;;6.40;5.77;;;17.00;98.30;;;;;;4153249;28;20964;-84
2021/07/20 01:52:17;;;;;;;8.63;5.20;;;16.90;98.30;;;;;;4154628;28;20493;-85
2021/07/20 01:54:21;;;;;;;9.03;5.60;;;16.90;98.30;;;;;;4154661;28;20468;-86
2021/07/20 01:56:24;;;;;;;11.60;6.37;;;16.90;98.30;;;;;;4154416;28;20556;-85
2021/07/20 01:58:29;;;;;;;8.83;5.77;;;16.90;98.30;;;;;;4153261;28;20501;-84
2021/07/20 02:00:32;;;;;;;12.97;6.33;;;16.90;98.30;;;;;;4152744;28;20462;-84
2021/07/20 02:02:50;;;;;;;10.20;5.90;;;16.90;98.30;;;;;;4154878;28;20619;-85
2021/07/20 02:37:23;;;;;;;8.30;5.40;;;16.60;98.30;;;;;;4145140;28;20477;-85
2021/07/20 03:57:28;;;;;;;8.93;6.77;;;15.80;98.30;;;;;;4085864;28;20518;-86
2021/07/20 04:44:29;;;;;;;9.77;6.97;;;15.30;98.30;;;;;;4036983;29;20456;-86
2021/07/20 05:00:28;;;;;;;9.90;6.87;;;16.00;98.30;;;;;;3934932;30;20964;-86
2021/07/20 05:09:49;;;;;;;7.23;5.80;;;16.50;98.30;;;;;;4129444;28;20481;-86
2021/07/20 05:11:58;;;;;;;10.90;6.30;;;16.40;98.30;;;;;;4129990;28;20490;-86
2021/07/20 06:32:52;;;;;;;7.57;5.63;;;17.70;98.30;;;;;;3857607;30;20512;-86
2021/07/20 07:37:40;;;;;;;9.43;6.70;;;19.60;98.30;;;;;;3937490;30;20455;-83
2021/07/20 07:39:53;;;;;;;10.60;6.80;;;19.70;98.30;;;;;;3957315;30;20914;-83
2021/07/20 07:41:59;;;;;;;10.40;7.23;;;19.60;98.30;;;;;;3994645;29;20576;-83
2021/07/20 07:44:09;;;;;;;10.00;7.60;;;19.50;98.30;;;;;;4065764;29;20470;-83
2021/07/20 07:46:29;;;;;;;12.47;7.57;;;19.60;98.30;;;;;;4064990;29;20625;-84
2021/07/20 07:49:31;;;;;;;9.53;6.67;;;19.70;98.30;;;;;;4032725;29;20453;-83
2021/07/20 08:05:18;;;;;;;9.23;7.10;;;20.00;97.60;;;;;;4036688;29;20810;-84
2021/07/20 08:19:34;;;;;;;8.30;6.20;;;20.40;95.60;;;;;;4012612;29;20565;-86
2021/07/20 08:31:26;;;;;;;11.10;8.00;;;20.10;95.90;;;;;;4067106;29;20545;-85
2021/07/20 08:50:38;;;;;;;9.53;6.40;;;20.70;95.00;;;;;;4008116;29;20966;-85
2021/07/20 08:52:45;;;;;;;7.03;6.27;;;20.60;93.90;;;;;;4019848;29;20490;-86
2021/07/20 08:54:54;;;;;;;9.70;6.60;;;20.50;93.70;;;;;;4037530;29;20477;-87
2021/07/20 08:57:03;;;;;;;7.63;6.13;;;20.50;93.90;;;;;;4080889;29;20462;-86
2021/07/20 08:59:10;;;;;;;10.00;7.60;;;20.50;94.00;;;;;;4079532;29;20475;-85
2021/07/20 09:07:22;;;;;;;9.00;7.43;;;20.80;94.70;;;;;;4041683;29;20822;-85
2021/07/20 09:09:32;;;;;;;9.40;7.20;;;21.00;95.40;;;;;;4016735;29;21097;-84
2021/07/20 09:11:45;;;;;;;7.63;6.70;;;21.00;93.10;;;;;;4038250;29;20519;-86
2021/07/20 09:13:54;;;;;;;8.07;7.27;;;20.90;93.80;;;;;;4038055;29;20511;-85
2021/07/20 09:16:06;;;;;;;9.73;6.60;;;20.90;93.00;;;;;;4038061;29;20476;-85
2021/07/20 09:18:18;;;;;;;7.60;6.10;;;20.90;93.20;;;;;;4072608;29;20491;-84
2021/07/20 09:20:24;;;;;;;8.90;6.30;;;21.00;92.80;;;;;;4084687;29;20541;-85
2021/07/20 09:22:36;;;;;;;7.57;6.80;;;20.90;92.50;;;;;;4081738;29;20501;-85
2021/07/20 09:24:48;;;;;;;10.50;7.27;;;20.80;92.10;;;;;;4083562;29;20477;-85
2021/07/20 09:27:02;;;;;;;8.30;7.10;;;20.80;93.00;;;;;;4082756;29;20474;-86
2021/07/20 09:29:12;;;;;;;7.80;6.70;;;21.00;93.90;;;;;;4081816;29;20496;-85
2021/07/20 09:31:27;;;;;;;9.40;6.70;;;21.10;93.20;;;;;;4083270;29;20466;-85
2021/07/20 09:33:37;;;;;;;8.53;6.43;;;21.20;93.10;;;;;;4076175;29;20870;-86
2021/07/20 09:35:45;;;;;;;10.63;6.90;;;21.20;92.20;;;;;;4079774;29;20469;-85
2021/07/20 09:38:08;;;;;;;8.47;6.70;;;21.40;93.70;;;;;;4080371;29;20501;-85
2021/07/20 09:40:25;;;;;;;9.57;7.27;;;21.70;93.20;;;;;;4080595;29;20484;-86
2021/07/20 09:42:39;;;;;;;6.90;6.20;;;22.10;92.10;;;;;;4079257;29;20480;-86
2021/07/20 09:44:48;;;;;;;7.33;6.43;;;22.40;91.00;;;;;;4079270;29;20722;-85
2021/07/20 09:47:06;;;;;;;9.20;6.87;;;22.40;89.90;;;;;;4079969;29;20476;-85
2021/07/20 09:49:19;;;;;;;8.73;6.80;;;22.40;90.40;;;;;;4078719;29;20509;-86
2021/07/20 09:51:36;;;;;;;7.73;6.83;;;22.20;90.00;;;;;;4079967;29;20478;-86
2021/07/20 09:54:09;;;;;;;7.97;6.70;;;22.00;89.70;;;;;;4078169;29;20513;-86
2021/07/20 09:56:35;;;;;;;9.40;7.10;;;22.00;90.00;;;;;;4082203;29;20473;-86
2021/07/20 09:58:52;;;;;;;8.00;6.70;;;22.00;90.10;;;;;;4081147;29;21078;-87
2021/07/20 10:01:05;;;;;;;10.20;6.20;;;21.90;89.80;;;;;;4080773;29;20566;-87
2021/07/20 10:03:34;;;;;;;9.03;6.37;;;22.10;89.70;;;;;;4079372;29;20458;-87
2021/07/20 10:05:52;;;;;;;7.57;6.43;;;22.20;88.90;;;;;;4080902;29;20458;-86
2021/07/20 10:08:04;;;;;;;7.33;6.50;;;22.10;88.60;;;;;;4080086;29;20563;-87
2021/07/20 10:10:15;;;;;;;10.30;7.67;;;22.20;89.50;;;;;;4082073;29;20601;-87
2021/07/20 10:12:24;;;;;;;7.00;6.30;;;22.20;90.40;;;;;;4079557;29;20566;-86
2021/07/20 10:14:46;;;;;;;8.40;6.23;;;22.60;90.60;;;;;;4079889;29;20493;-87
2021/07/20 10:17:04;;;;;;;8.13;6.67;;;22.60;89.10;;;;;;4078994;29;20514;-86
2021/07/20 10:19:11;;;;;;;9.30;6.60;;;22.50;87.80;;;;;;4081350;29;20996;-88
2021/07/20 10:21:23;;;;;;;7.73;6.93;;;22.40;88.10;;;;;;4083647;29;21190;-87
2021/07/20 10:23:35;;;;;;;7.83;7.00;;;22.20;89.10;;;;;;4078851;29;20465;-88
2021/07/20 10:26:04;;;;;;;7.73;6.43;;;22.20;89.90;;;;;;4080612;29;20898;-88
2021/07/20 10:28:23;;;;;;;8.57;6.50;;;22.50;89.70;;;;;;4080947;29;20513;-87
2021/07/20 10:30:35;;;;;;;8.20;6.33;;;22.70;88.40;;;;;;4079040;29;20470;-88
2021/07/20 10:32:54;;;;;;;7.70;6.40;;;22.60;88.30;;;;;;4084367;29;20469;-86
2021/07/20 10:35:01;;;;;;;7.00;6.27;;;22.70;90.00;;;;;;4075646;29;20462;-88
2021/07/20 10:37:11;;;;;;;7.80;6.90;;;22.70;88.10;;;;;;4081439;29;20514;-88
2021/07/20 10:39:20;;;;;;;7.10;5.90;;;22.60;88.20;;;;;;4081114;29;20478;-88
2021/07/20 10:41:39;;;;;;;6.43;5.83;;;22.70;88.30;;;;;;4081991;29;20466;-88
2021/07/20 10:43:58;;;;;;;7.00;6.30;;;22.70;88.30;;;;;;4081451;29;20824;-88
2021/07/20 10:46:13;;;;;;;6.97;6.27;;;22.60;87.90;;;;;;4080826;29;20549;-87
2021/07/20 10:48:56;;;;;;;8.73;6.20;;;22.60;88.20;;;;;;4080029;29;20486;-88
2021/07/20 10:51:11;;;;;;;7.90;6.73;;;22.50;88.90;;;;;;4067707;29;20466;-87
2021/07/20 10:53:31;;;;;;;7.57;6.30;;;22.50;89.50;;;;;;4079223;29;20478;-88
2021/07/20 10:55:52;;;;;;;9.17;7.20;;;22.40;89.90;;;;;;4079929;29;20466;-87
2021/07/20 10:58:05;;;;;;;8.00;6.63;;;22.30;89.80;;;;;;4078592;29;20912;-88
2021/07/20 11:00:17;;;;;;;7.83;6.10;;;22.50;90.40;;;;;;4079293;29;20466;-88
2021/07/20 11:02:42;;;;;;;6.47;5.83;;;22.60;89.90;;;;;;4080505;29;21008;-89
2021/07/20 11:04:56;;;;;;;7.83;6.00;;;22.70;89.50;;;;;;4079767;29;20462;-87
2021/07/20 11:07:08;;;;;;;7.57;6.00;;;22.90;88.60;;;;;;4080577;29;20469;-87
2021/07/20 11:09:19;;;;;;;8.00;6.90;;;23.10;88.20;;;;;;4080058;29;20592;-88
2021/07/20 11:11:29;;;;;;;8.17;6.83;;;23.20;87.50;;;;;;4080637;29;20536;-87
2021/07/20 11:13:35;;;;;;;9.33;6.67;;;23.00;88.00;;;;;;4079502;29;21022;-88
2021/07/20 11:15:51;;;;;;;8.47;6.93;;;23.00;89.40;;;;;;4090315;28;20527;-88
2021/07/20 11:17:57;;;;;;;9.23;6.97;;;23.00;89.30;;;;;;4108415;28;20520;-87
2021/07/20 11:20:11;;;;;;;7.73;7.00;;;22.90;89.40;;;;;;4107092;28;20499;-87
2021/07/20 11:22:20;;;;;;;7.60;6.20;;;22.90;89.40;;;;;;4109642;28;20560;-88
2021/07/20 11:24:24;;;;;;;9.10;7.13;;;23.00;89.50;;;;;;4108361;28;20563;-88
2021/07/20 11:26:30;;;;;;;9.83;6.90;;;23.20;89.00;;;;;;4107609;28;20502;-88
2021/07/20 11:28:34;;;;;;;8.83;7.43;;;23.40;88.50;;;;;;4108452;28;20500;-86
2021/07/20 11:30:40;;;;;;;7.53;6.43;;;23.80;86.60;;;;;;4109469;28;20559;-86
2021/07/20 11:32:52;;;;;;;8.03;6.97;;;23.90;86.30;;;;;;4108788;28;20495;-86
2021/07/20 11:34:59;;;;;;;8.07;7.30;;;24.30;86.20;;;;;;4111029;28;20540;-87
2021/07/20 11:37:06;;;;;;;8.63;7.73;;;25.00;84.90;;;;;;4110578;28;20484;-86
2021/07/20 11:39:16;;;;;;;8.87;7.13;;;25.50;83.00;;;;;;4109858;28;20571;-87
2021/07/20 11:41:35;;;;;;;7.60;6.80;;;25.90;82.40;;;;;;4108652;28;20907;-87
2021/07/20 11:43:48;;;;;;;8.03;7.23;;;26.00;81.30;;;;;;4109570;28;20528;-86
2021/07/20 11:45:59;;;;;;;7.27;6.57;;;25.60;81.80;;;;;;4108475;28;20908;-88
2021/07/20 11:48:15;;;;;;;7.00;6.27;;;25.10;83.90;;;;;;4109508;28;20522;-87
2021/07/20 11:50:31;;;;;;;8.53;7.60;;;25.30;83.50;;;;;;4105613;28;20971;-89
2021/07/20 11:52:50;;;;;;;8.70;7.37;;;25.70;82.30;;;;;;4106911;28;20543;-89
2021/07/20 11:55:10;;;;;;;7.67;6.73;;;26.20;81.50;;;;;;4106251;28;20560;-88
2021/07/20 11:57:55;;;;;;;8.13;7.27;;;25.90;81.50;;;;;;4108466;28;20484;-88
2021/07/20 12:00:13;;;;;;;7.73;7.03;;;25.30;82.30;;;;;;4106714;28;20504;-87
2021/07/20 12:02:43;;;;;;;8.67;7.87;;;24.60;84.00;;;;;;4104796;28;20460;-88
2021/07/20 12:05:08;;;;;;;9.20;7.30;;;24.20;85.90;;;;;;4105587;28;20523;-88
2021/07/20 12:07:23;;;;;;;9.20;8.30;;;24.00;86.10;;;;;;4105224;28;20480;-90
2021/07/20 12:09:43;;;;;;;9.00;7.80;;;23.70;86.40;;;;;;4106794;28;20488;-88
2021/07/20 12:12:03;;;;;;;8.37;7.17;;;23.50;87.80;;;;;;4105536;28;20959;-87
2021/07/20 12:14:12;;;;;;;8.20;7.13;;;24.10;87.30;;;;;;4107182;28;20570;-88
2021/07/20 12:16:18;;;;;;;8.40;7.53;;;24.30;84.90;;;;;;4105854;28;20992;-88
2021/07/20 12:18:26;;;;;;;7.83;7.03;;;23.90;86.30;;;;;;4106732;28;20570;-84
2021/07/20 12:20:30;;;;;;;8.37;7.17;;;23.40;87.80;;;;;;4104866;28;20480;-84
2021/07/20 12:22:33;;;;;;;9.90;7.47;;;23.20;88.30;;;;;;4110769;28;20499;-84
2021/07/20 12:24:37;;;;;;;9.93;7.80;;;23.10;89.20;;;;;;4114243;28;20483;-84
2021/07/20 12:26:44;;;;;;;10.53;8.23;;;23.20;88.80;;;;;;4111529;28;20536;-84
2021/07/20 12:28:49;;;;;;;9.43;8.53;;;23.30;89.60;;;;;;4109793;28;21148;-85
2021/07/20 12:30:59;;;;;;;8.70;7.80;;;23.70;89.20;;;;;;4113328;28;20467;-85
2021/07/20 12:33:13;;;;;;;12.10;7.67;;;24.20;88.10;;;;;;4115593;28;20527;-85
2021/07/20 12:35:18;;;;;;;9.50;7.40;;;24.30;88.10;;;;;;4115566;28;20526;-85
2021/07/20 12:37:24;;;;;;;9.50;8.33;;;24.40;87.90;;;;;;4115631;28;20991;-84
2021/07/20 12:39:28;;;;;;;8.00;6.97;;;24.40;87.90;;;;;;4117515;28;20492;-84
2021/07/20 12:41:31;;;;;;;9.13;8.00;;;24.60;88.70;;;;;;4114729;28;20464;-84
2021/07/20 12:43:39;;;;;;;9.13;8.13;;;25.00;86.80;;;;;;4108153;28;20955;-84
2021/07/20 12:45:44;;;;;;;8.97;7.93;;;25.30;85.50;;;;;;4109037;28;20490;-84
2021/07/20 12:47:52;;;;;;;8.23;7.37;;;25.40;85.70;;;;;;4114954;28;20482;-84
2021/07/20 12:50:04;;;;;;;11.33;8.27;;;25.60;84.50;;;;;;4117431;28;20471;-84
2021/07/20 12:52:09;;;;;;;8.50;7.60;;;25.10;85.70;;;;;;4112002;28;20506;-84
2021/07/20 12:54:13;;;;;;;10.70;8.77;;;25.00;86.20;;;;;;4115250;28;20542;-84
2021/07/20 12:56:22;;;;;;;10.50;8.50;;;24.90;87.00;;;;;;4113766;28;20955;-84
2021/07/20 12:58:25;;;;;;;9.00;8.07;;;24.60;87.60;;;;;;4112717;28;20927;-84
2021/07/20 13:00:29;;;;;;;9.27;8.10;;;24.30;88.70;;;;;;4116980;28;20463;-84
2021/07/20 13:02:34;;;;;;;11.87;8.63;;;24.10;89.70;;;;;;4114401;28;20471;-86
2021/07/20 13:04:37;;;;;;;8.67;7.33;;;24.10;89.20;;;;;;4113681;28;20491;-84
2021/07/20 13:06:45;;;;;;;10.20;6.40;;;23.90;89.20;;;;;;4113351;28;20498;-84
2021/07/20 13:08:52;;;;;;;9.13;8.23;;;23.90;89.30;;;;;;4108927;28;20858;-85
2021/07/20 13:10:55;;;;;;;8.67;7.77;;;23.90;88.90;;;;;;4116557;28;20471;-84
2021/07/20 13:13:01;;;;;;;10.33;8.03;;;23.90;89.40;;;;;;4119220;28;20475;-85
2021/07/20 13:15:16;;;;;;;8.83;7.70;;;24.00;89.50;;;;;;4118731;28;20468;-85
2021/07/20 13:17:21;;;;;;;8.00;7.10;;;24.30;88.70;;;;;;4122054;28;20480;-84
2021/07/20 13:19:27;;;;;;;7.90;6.80;;;24.90;88.20;;;;;;4117335;28;20501;-84
2021/07/20 13:21:30;;;;;;;8.67;7.77;;;25.30;87.30;;;;;;4108673;28;20933;-83
2021/07/20 13:23:41;;;;;;;7.53;6.77;;;25.80;85.80;;;;;;4112201;28;20850;-83
2021/07/20 13:25:47;;;;;;;7.33;6.63;;;25.80;84.40;;;;;;4114768;28;20611;-83
2021/07/20 13:27:52;;;;;;;9.83;7.30;;;25.30;85.80;;;;;;4118344;28;20476;-83
2021/07/20 13:29:55;;;;;;;10.13;6.80;;;24.90;87.00;;;;;;4115924;28;20482;-85
2021/07/20 13:32:00;;;;;;;7.83;7.00;;;24.60;87.50;;;;;;4114208;28;20476;-84
2021/07/20 13:34:04;;;;;;;7.80;7.00;;;24.00;88.70;;;;;;4112439;28;20468;-84
2021/07/20 13:36:08;;;;;;;11.23;8.80;;;23.50;90.50;;;;;;4116828;28;20483;-86
2021/07/20 13:38:12;;;;;;;8.63;7.60;;;23.60;91.10;;;;;;4116934;28;20488;-85
2021/07/20 13:40:19;;;;;;;9.87;8.27;;;23.80;90.50;;;;;;4115706;28;20470;-84
2021/07/20 13:42:24;;;;;;;9.77;8.77;;;23.80;90.50;;;;;;4117058;28;20455;-85
2021/07/20 13:44:32;;;;;;;11.80;8.40;;;23.70;89.90;;;;;;4110247;28;20472;-84
2021/07/20 13:46:39;;;;;;;8.70;7.80;;;23.50;90.50;;;;;;4116614;28;20808;-85
2021/07/20 13:48:49;;;;;;;8.00;6.73;;;23.50;91.00;;;;;;4122458;28;20571;-85
2021/07/20 13:50:59;;;;;;;8.20;7.20;;;23.20;92.00;;;;;;4115044;28;20464;-84
2021/07/20 13:53:07;;;;;;;8.90;8.00;;;23.10;92.70;;;;;;4117044;28;20547;-84
2021/07/20 13:55:23;;;;;;;10.00;7.10;;;23.00;93.10;;;;;;4113752;28;20455;-85
2021/07/20 13:57:28;;;;;;;10.73;8.50;;;23.00;93.60;;;;;;4107121;28;20490;-85
2021/07/20 13:59:39;;;;;;;8.77;7.23;;;23.10;94.30;;;;;;4111326;28;20523;-85
2021/07/20 14:01:46;;;;;;;9.07;7.47;;;23.20;93.40;;;;;;4116661;28;20528;-85
2021/07/20 14:03:54;;;;;;;10.00;7.73;;;23.30;91.40;;;;;;4113068;28;20595;-84
2021/07/20 14:05:57;;;;;;;9.60;7.80;;;23.50;90.20;;;;;;4113419;28;20487;-84
2021/07/20 14:08:01;;;;;;;10.43;8.60;;;23.50;91.10;;;;;;4111214;28;20488;-83
2021/07/20 14:10:06;;;;;;;8.80;7.90;;;23.60;90.60;;;;;;4116643;28;20483;-83
2021/07/20 14:12:09;;;;;;;9.43;8.33;;;23.50;90.60;;;;;;4113287;28;20480;-84
2021/07/20 14:14:19;;;;;;;9.83;7.93;;;23.40;91.00;;;;;;4111652;28;21046;-85
2021/07/20 14:16:29;;;;;;;11.60;8.50;;;23.10;91.80;;;;;;4115574;28;20515;-84
2021/07/20 14:18:33;;;;;;;10.63;8.17;;;22.90;93.10;;;;;;4115589;28;20540;-83
2021/07/20 14:20:37;;;;;;;11.00;8.57;;;22.80;93.20;;;;;;4116598;28;20468;-84
2021/07/20 14:22:41;;;;;;;10.57;9.07;;;22.60;94.00;;;;;;4116430;28;20467;-84
2021/07/20 14:24:46;;;;;;;12.43;8.87;;;22.40;95.10;;;;;;4115063;28;20844;-83
2021/07/20 14:26:52;;;;;;;9.10;8.10;;;22.40;96.00;;;;;;4113008;28;20487;-84
2021/07/20 14:28:56;;;;;;;11.23;9.73;;;22.20;97.40;;;;;;4115984;28;20512;-84
2021/07/20 14:31:03;;;;;;;10.93;9.77;;;22.00;98.30;;;;;;4115542;28;20467;-83
2021/07/20 14:33:08;;;;;;;14.03;9.07;;;21.90;98.30;;;;;;4113426;28;20464;-84
2021/07/20 14:35:11;;;;;;;11.63;9.27;;;21.60;98.30;;;;;;4115889;28;20474;-84
2021/07/20 14:37:38;;;;;;;11.60;9.07;;;21.50;98.30;;;;;;4116425;28;20476;-84
2021/07/20 14:39:41;;;;;;;11.47;9.53;;;21.20;98.30;;;;;;4112911;28;21176;-84
2021/07/20 14:41:47;;;;;;;9.97;8.77;;;21.20;98.30;;;;;;4115850;28;20468;-84
2021/07/20 14:44:00;;;;;;;11.60;9.70;;;21.20;98.30;;;;;;4116490;28;20570;-84
2021/07/20 14:57:08;;;;;;;11.77;9.10;;;21.90;98.30;;;;;;4126996;28;20533;-87
2021/07/20 15:13:41;;;;;;;11.47;8.73;;;23.30;98.30;;;;;;5206085;22;20368;-86
2021/07/20 15:51:54;;;;;;;9.40;7.70;;;22.10;97.40;;;;;;5155500;23;20395;-85
2021/07/20 16:01:31;;;;;;;9.60;7.80;;;22.20;93.40;;;;;;5107582;23;20509;-84
2021/07/20 16:04:00;;;;;;;9.57;7.03;;;22.20;93.40;;;;;;5103524;23;20417;-84
2021/07/20 16:06:33;;;;;;;13.00;7.23;;;22.20;93.90;;;;;;5106740;23;20449;-85
2021/07/20 16:09:04;;;;;;;7.40;6.60;;;22.20;94.30;;;;;;5078518;23;20451;-86
2021/07/20 16:11:11;;;;;;;12.23;7.43;;;22.20;94.30;;;;;;5107526;23;20982;-84
2021/07/20 16:13:30;;;;;;;9.00;7.70;;;22.20;94.60;;;;;;5108749;23;20823;-88
2021/07/20 16:15:55;;;;;;;8.83;6.63;;;22.30;94.50;;;;;;5098120;23;20438;-86
2021/07/20 16:18:06;;;;;;;9.23;6.97;;;22.20;93.40;;;;;;5108512;23;20466;-87
2021/07/20 16:20:19;;;;;;;12.73;7.80;;;22.10;92.70;;;;;;5108349;23;20426;-85
2021/07/20 16:22:22;;;;;;;8.70;7.13;;;22.10;92.90;;;;;;5099004;23;20414;-86
2021/07/20 16:24:28;;;;;;;8.33;6.97;;;22.10;93.50;;;;;;5106751;23;20432;-85
2021/07/20 16:26:31;;;;;;;7.80;6.97;;;22.10;93.50;;;;;;5107499;23;20528;-85
2021/07/20 16:28:38;;;;;;;11.33;8.03;;;22.00;93.90;;;;;;5107800;23;20418;-85
2021/07/20 16:30:43;;;;;;;8.90;7.40;;;22.00;94.00;;;;;;5108796;23;20429;-83
2021/07/20 16:32:46;;;;;;;12.53;10.20;;;21.90;94.50;;;;;;5103591;23;20429;-84
2021/07/20 16:34:49;;;;;;;15.50;11.90;;;21.90;94.60;;;;;;5101714;23;20897;-85
2021/07/20 16:36:52;;;;;;;18.20;12.97;;;21.90;95.20;;;;;;5102124;23;20466;-85
2021/07/20 16:39:00;;;;;;;13.07;9.97;;;21.90;95.30;;;;;;5101944;23;20450;-85
2021/07/20 16:41:07;;;;;;;10.57;7.90;;;22.00;95.10;;;;;;5102463;23;20406;-85
2021/07/20 16:43:15;;;;;;;10.00;7.47;;;21.90;95.30;;;;;;5102013;23;20494;-84
2021/07/20 16:45:19;;;;;;;10.33;7.53;;;21.90;95.40;;;;;;5101243;23;20444;-78
2021/07/20 16:47:22;;;;;;;8.67;7.30;;;21.80;95.70;;;;;;5094306;23;20455;-78
2021/07/20 16:49:25;;;;;;;11.63;8.13;;;21.70;96.10;;;;;;5101556;23;20423;-78
2021/07/20 16:51:28;;;;;;;8.80;7.60;;;21.60;97.00;;;;;;5094318;23;20765;-78
2021/07/20 16:53:33;;;;;;;9.97;7.23;;;21.70;97.20;;;;;;5094123;23;20920;-78
2021/07/20 16:55:38;;;;;;;9.43;7.30;;;21.70;97.40;;;;;;5094314;23;20936;-78
2021/07/20 16:57:46;;;;;;;8.10;7.30;;;21.70;98.20;;;;;;5094137;23;20427;-76
2021/07/20 16:59:49;;;;;;;8.87;7.13;;;21.60;98.30;;;;;;5100200;23;20501;-78
2021/07/20 17:01:56;;;;;;;7.70;6.87;;;21.60;98.30;;;;;;5093177;23;20435;-77
2021/07/20 17:04:00;;;;;;;8.40;7.17;;;21.60;98.30;;;;;;5101382;23;20422;-78
2021/07/20 17:06:04;;;;;;;8.50;6.93;;;21.60;98.30;;;;;;5093749;23;20747;-78
2021/07/20 17:08:09;;;;;;;7.20;6.47;;;21.50;98.30;;;;;;5092341;23;20802;-77
2021/07/20 17:10:12;;;;;;;8.70;6.67;;;21.50;98.30;;;;;;5092892;23;20426;-77
2021/07/20 17:12:15;;;;;;;8.50;6.50;;;21.40;98.30;;;;;;5093644;23;20444;-78
2021/07/20 17:14:20;;;;;;;11.53;8.57;;;21.30;98.30;;;;;;5093520;23;20463;-78
2021/07/20 17:16:24;;;;;;;8.70;7.23;;;21.40;98.30;;;;;;5093544;23;20447;-77
2021/07/20 17:18:27;;;;;;;9.07;7.20;;;21.40;98.30;;;;;;5094108;23;20762;-78
2021/07/20 17:20:30;;;;;;;8.53;6.40;;;21.40;98.30;;;;;;5093240;23;20804;-78
2021/07/20 17:22:33;;;;;;;9.20;7.53;;;21.40;98.30;;;;;;5093860;23;20812;-78
2021/07/20 17:24:38;;;;;;;10.70;7.60;;;21.40;98.30;;;;;;5093538;23;20431;-78
2021/07/20 17:26:42;;;;;;;9.83;7.07;;;21.30;98.30;;;;;;5094555;23;20451;-78
2021/07/20 17:28:47;;;;;;;8.90;7.47;;;21.30;98.30;;;;;;5092539;23;20490;-78
2021/07/20 17:30:53;;;;;;;9.10;7.17;;;21.20;98.30;;;;;;5101665;23;21183;-80
2021/07/20 17:33:00;;;;;;;11.23;6.97;;;21.30;98.30;;;;;;5093689;23;20415;-80
2021/07/20 17:35:06;;;;;;;9.50;6.67;;;21.20;98.30;;;;;;5102278;23;21391;-82
2021/07/20 17:37:12;;;;;;;12.27;7.50;;;21.20;98.30;;;;;;5097412;23;20764;-80
2021/07/20 17:39:16;;;;;;;11.80;7.10;;;21.20;98.30;;;;;;5100939;23;20450;-80
2021/07/20 17:41:23;;;;;;;8.73;6.87;;;21.00;98.30;;;;;;5100708;23;21093;-79
2021/07/20 17:43:28;;;;;;;8.57;7.40;;;20.90;98.30;;;;;;5100220;23;20458;-79
2021/07/20 17:45:31;;;;;;;12.70;6.73;;;20.90;98.30;;;;;;5100680;23;20840;-80
2021/07/20 17:47:36;;;;;;;9.80;8.33;;;20.90;98.30;;;;;;5092935;23;20443;-80
2021/07/20 17:49:39;;;;;;;10.50;8.00;;;20.80;98.30;;;;;;5103153;23;20419;-79
2021/07/20 17:51:45;;;;;;;11.87;7.43;;;20.70;98.30;;;;;;5101118;23;20423;-79
2021/07/20 17:53:52;;;;;;;10.60;7.77;;;20.60;98.30;;;;;;5092471;23;20496;-82
2021/07/20 17:55:56;;;;;;;10.83;7.87;;;20.60;98.30;;;;;;5100700;23;20438;-80
2021/07/20 17:58:05;;;;;;;10.27;8.30;;;20.50;98.30;;;;;;5101510;23;20460;-82
2021/07/20 18:00:11;;;;;;;11.70;7.53;;;20.60;98.30;;;;;;5092663;23;20537;-79
2021/07/20 18:02:13;;;;;;;8.97;7.47;;;20.60;98.30;;;;;;5101266;23;20418;-79
2021/07/20 18:04:21;;;;;;;10.27;7.40;;;20.60;98.30;;;;;;5100231;23;20477;-79
2021/07/20 18:06:24;;;;;;;8.50;7.43;;;20.60;98.30;;;;;;5100520;23;20537;-80
2021/07/20 18:08:29;;;;;;;10.93;8.20;;;20.50;98.30;;;;;;5100568;23;20427;-83
2021/07/20 18:10:33;;;;;;;9.80;7.50;;;20.60;98.30;;;;;;5100946;23;20457;-79
2021/07/20 18:12:37;;;;;;;10.20;8.10;;;20.60;98.30;;;;;;5100899;23;20498;-80
2021/07/20 18:14:40;;;;;;;9.00;7.57;;;20.60;98.30;;;;;;5092290;23;20434;-79
2021/07/20 18:16:44;;;;;;;10.33;7.40;;;20.60;98.30;;;;;;5093047;23;20457;-80
2021/07/20 18:18:46;;;;;;;14.23;11.03;;;20.60;98.30;;;;;;5101265;23;20426;-80
2021/07/20 18:20:51;;;;;;;11.80;7.93;;;20.60;98.30;;;;;;5100905;23;20443;-81
2021/07/20 18:22:54;;;;;;;12.13;7.70;;;20.60;98.30;;;;;;5100798;23;20426;-81
2021/07/20 18:24:57;;;;;;;9.87;8.03;;;20.60;98.30;;;;;;5101559;23;20532;-80
2021/07/20 18:27:00;;;;;;;12.13;9.23;;;20.60;98.30;;;;;;5101378;23;20453;-80
2021/07/20 18:29:04;;;;;;;14.40;12.17;;;20.60;98.30;;;;;;5092742;23;20438;-80
2021/07/20 18:31:08;;;;;;;10.50;8.87;;;20.60;98.30;;;;;;5100946;23;20419;-82